sensor_id;sensor_type;location;lat;lon;timestamp;P1;durP1;ratioP1;P2;durP2;ratioP2
44989;SDS011;30723;51.206;3.326;2022-11-21T00:02:23;8.68;;;2.20;;
44989;SDS011;30723;51.206;3.326;2022-11-21T00:04:48;5.13;;;1.40;;
44989;SDS011;30723;51.206;3.326;2022-11-21T00:07:14;13.63;;;2.13;;
44989;SDS011;30723;51.206;3.326;2022-11-21T00:09:40;11.60;;;1.70;;
44989;SDS011;30723;51.206;3.326;2022-11-21T00:12:05;6.30;;;1.10;;
44989;SDS011;30723;51.206;3.326;2022-11-21T00:14:32;7.68;;;1.65;;
44989;SDS011;30723;51.206;3.326;2022-11-21T00:16:58;5.72;;;1.00;;
44989;SDS011;30723;51.206;3.326;2022-11-21T00:19:23;6.50;;;1.15;;
44989;SDS011;30723;51.206;3.326;2022-11-21T00:21:49;6.80;;;1.75;;
44989;SDS011;30723;51.206;3.326;2022-11-21T00:24:15;3.83;;;1.48;;
44989;SDS011;30723;51.206;3.326;2022-11-21T00:26:41;8.30;;;1.67;;
44989;SDS011;30723;51.206;3.326;2022-11-21T00:29:06;4.22;;;1.10;;
44989;SDS011;30723;51.206;3.326;2022-11-21T00:31:32;8.43;;;1.83;;
44989;SDS011;30723;51.206;3.326;2022-11-21T00:33:58;10.02;;;1.40;;
44989;SDS011;30723;51.206;3.326;2022-11-21T00:36:24;7.93;;;1.23;;
44989;SDS011;30723;51.206;3.326;2022-11-21T00:38:49;7.80;;;1.15;;
44989;SDS011;30723;51.206;3.326;2022-11-21T00:41:15;5.15;;;0.98;;
44989;SDS011;30723;51.206;3.326;2022-11-21T00:43:41;7.38;;;1.52;;
44989;SDS011;30723;51.206;3.326;2022-11-21T00:46:06;11.45;;;2.10;;
44989;SDS011;30723;51.206;3.326;2022-11-21T00:48:32;11.80;;;2.35;;
44989;SDS011;30723;51.206;3.326;2022-11-21T00:50:58;10.65;;;1.95;;
44989;SDS011;30723;51.206;3.326;2022-11-21T00:53:24;6.78;;;1.73;;
44989;SDS011;30723;51.206;3.326;2022-11-21T00:55:50;6.78;;;2.20;;
44989;SDS011;30723;51.206;3.326;2022-11-21T00:58:16;8.57;;;2.42;;
44989;SDS011;30723;51.206;3.326;2022-11-21T01:00:42;16.98;;;2.78;;
44989;SDS011;30723;51.206;3.326;2022-11-21T01:03:07;4.47;;;2.00;;
44989;SDS011;30723;51.206;3.326;2022-11-21T01:05:33;7.03;;;2.92;;
44989;SDS011;30723;51.206;3.326;2022-11-21T01:07:59;10.55;;;2.65;;
44989;SDS011;30723;51.206;3.326;2022-11-21T01:10:24;7.88;;;1.95;;
44989;SDS011;30723;51.206;3.326;2022-11-21T01:12:50;5.40;;;1.60;;
44989;SDS011;30723;51.206;3.326;2022-11-21T01:15:16;6.32;;;1.80;;
44989;SDS011;30723;51.206;3.326;2022-11-21T01:17:41;10.07;;;1.55;;
44989;SDS011;30723;51.206;3.326;2022-11-21T01:20:07;3.75;;;1.50;;
44989;SDS011;30723;51.206;3.326;2022-11-21T01:22:33;8.27;;;2.00;;
44989;SDS011;30723;51.206;3.326;2022-11-21T01:24:59;6.15;;;1.60;;
44989;SDS011;30723;51.206;3.326;2022-11-21T01:27:25;8.60;;;1.50;;
44989;SDS011;30723;51.206;3.326;2022-11-21T01:29:51;8.98;;;2.25;;
44989;SDS011;30723;51.206;3.326;2022-11-21T01:32:17;6.82;;;1.60;;
44989;SDS011;30723;51.206;3.326;2022-11-21T01:34:42;9.20;;;2.15;;
44989;SDS011;30723;51.206;3.326;2022-11-21T01:37:08;11.48;;;1.88;;
44989;SDS011;30723;51.206;3.326;2022-11-21T01:39:34;10.90;;;1.73;;
44989;SDS011;30723;51.206;3.326;2022-11-21T01:42:00;6.68;;;1.40;;
44989;SDS011;30723;51.206;3.326;2022-11-21T01:44:44;7.10;;;1.25;;
44989;SDS011;30723;51.206;3.326;2022-11-21T01:47:13;10.02;;;1.48;;
44989;SDS011;30723;51.206;3.326;2022-11-21T01:49:39;10.35;;;1.77;;
44989;SDS011;30723;51.206;3.326;2022-11-21T01:52:16;7.68;;;1.50;;
44989;SDS011;30723;51.206;3.326;2022-11-21T01:54:53;8.73;;;1.90;;
44989;SDS011;30723;51.206;3.326;2022-11-21T01:57:37;9.48;;;1.67;;
44989;SDS011;30723;51.206;3.326;2022-11-21T02:00:12;5.68;;;1.10;;
44989;SDS011;30723;51.206;3.326;2022-11-21T02:02:46;7.13;;;1.45;;
44989;SDS011;30723;51.206;3.326;2022-11-21T02:05:18;17.80;;;2.38;;
44989;SDS011;30723;51.206;3.326;2022-11-21T02:07:47;12.13;;;2.50;;
44989;SDS011;30723;51.206;3.326;2022-11-21T02:10:15;4.40;;;1.38;;
44989;SDS011;30723;51.206;3.326;2022-11-21T02:12:46;7.28;;;1.73;;
44989;SDS011;30723;51.206;3.326;2022-11-21T02:15:14;9.15;;;2.25;;
44989;SDS011;30723;51.206;3.326;2022-11-21T02:17:41;8.77;;;1.85;;
44989;SDS011;30723;51.206;3.326;2022-11-21T02:20:10;7.55;;;2.03;;
44989;SDS011;30723;51.206;3.326;2022-11-21T02:25:17;7.60;;;1.60;;
44989;SDS011;30723;51.206;3.326;2022-11-21T02:27:48;12.88;;;1.35;;
44989;SDS011;30723;51.206;3.326;2022-11-21T02:30:17;11.55;;;2.00;;
44989;SDS011;30723;51.206;3.326;2022-11-21T02:32:43;10.43;;;2.30;;
44989;SDS011;30723;51.206;3.326;2022-11-21T02:35:16;6.28;;;1.52;;
44989;SDS011;30723;51.206;3.326;2022-11-21T02:37:46;11.05;;;2.35;;
44989;SDS011;30723;51.206;3.326;2022-11-21T02:40:20;11.13;;;2.03;;
44989;SDS011;30723;51.206;3.326;2022-11-21T02:43:13;11.77;;;3.15;;
44989;SDS011;30723;51.206;3.326;2022-11-21T02:45:43;7.40;;;1.40;;
44989;SDS011;30723;51.206;3.326;2022-11-21T02:48:10;6.05;;;1.27;;
44989;SDS011;30723;51.206;3.326;2022-11-21T02:50:37;13.82;;;1.52;;
44989;SDS011;30723;51.206;3.326;2022-11-21T02:53:05;10.20;;;1.88;;
44989;SDS011;30723;51.206;3.326;2022-11-21T02:55:32;8.60;;;1.20;;
44989;SDS011;30723;51.206;3.326;2022-11-21T02:57:59;5.22;;;1.38;;
44989;SDS011;30723;51.206;3.326;2022-11-21T03:00:25;7.30;;;1.13;;
44989;SDS011;30723;51.206;3.326;2022-11-21T03:02:51;6.57;;;1.60;;
44989;SDS011;30723;51.206;3.326;2022-11-21T03:05:18;6.60;;;1.40;;
44989;SDS011;30723;51.206;3.326;2022-11-21T03:07:45;7.10;;;1.33;;
44989;SDS011;30723;51.206;3.326;2022-11-21T03:10:11;5.50;;;1.13;;
44989;SDS011;30723;51.206;3.326;2022-11-21T03:12:38;7.72;;;1.42;;
44989;SDS011;30723;51.206;3.326;2022-11-21T03:15:05;3.20;;;1.20;;
44989;SDS011;30723;51.206;3.326;2022-11-21T03:17:33;4.15;;;1.65;;
44989;SDS011;30723;51.206;3.326;2022-11-21T03:19:58;13.20;;;1.83;;
44989;SDS011;30723;51.206;3.326;2022-11-21T03:22:24;8.32;;;1.25;;
44989;SDS011;30723;51.206;3.326;2022-11-21T03:24:50;8.40;;;1.58;;
44989;SDS011;30723;51.206;3.326;2022-11-21T03:27:16;9.60;;;1.35;;
44989;SDS011;30723;51.206;3.326;2022-11-21T03:29:42;11.23;;;1.52;;
44989;SDS011;30723;51.206;3.326;2022-11-21T03:32:07;5.78;;;1.27;;
44989;SDS011;30723;51.206;3.326;2022-11-21T03:34:33;12.77;;;1.88;;
44989;SDS011;30723;51.206;3.326;2022-11-21T03:36:59;7.60;;;1.35;;
44989;SDS011;30723;51.206;3.326;2022-11-21T03:39:25;6.72;;;1.63;;
44989;SDS011;30723;51.206;3.326;2022-11-21T03:41:51;9.20;;;1.40;;
44989;SDS011;30723;51.206;3.326;2022-11-21T03:44:16;4.03;;;1.25;;
44989;SDS011;30723;51.206;3.326;2022-11-21T03:46:42;12.15;;;2.13;;
44989;SDS011;30723;51.206;3.326;2022-11-21T03:49:09;10.65;;;2.35;;
44989;SDS011;30723;51.206;3.326;2022-11-21T03:51:36;10.23;;;2.08;;
44989;SDS011;30723;51.206;3.326;2022-11-21T03:54:02;15.40;;;1.90;;
44989;SDS011;30723;51.206;3.326;2022-11-21T03:56:29;11.68;;;2.20;;
44989;SDS011;30723;51.206;3.326;2022-11-21T03:58:55;6.10;;;1.65;;
44989;SDS011;30723;51.206;3.326;2022-11-21T04:01:21;9.70;;;2.17;;
44989;SDS011;30723;51.206;3.326;2022-11-21T04:03:48;12.25;;;2.55;;
44989;SDS011;30723;51.206;3.326;2022-11-21T04:06:15;9.80;;;2.65;;
44989;SDS011;30723;51.206;3.326;2022-11-21T04:08:43;11.93;;;2.10;;
44989;SDS011;30723;51.206;3.326;2022-11-21T04:11:09;8.50;;;1.98;;
44989;SDS011;30723;51.206;3.326;2022-11-21T04:13:35;14.55;;;3.08;;
44989;SDS011;30723;51.206;3.326;2022-11-21T04:16:01;10.02;;;1.90;;
44989;SDS011;30723;51.206;3.326;2022-11-21T04:18:27;8.45;;;2.08;;
44989;SDS011;30723;51.206;3.326;2022-11-21T04:20:56;9.20;;;2.22;;
44989;SDS011;30723;51.206;3.326;2022-11-21T04:23:23;5.43;;;2.22;;
44989;SDS011;30723;51.206;3.326;2022-11-21T04:25:49;10.73;;;2.20;;
44989;SDS011;30723;51.206;3.326;2022-11-21T04:28:15;7.65;;;1.98;;
44989;SDS011;30723;51.206;3.326;2022-11-21T04:30:41;13.90;;;2.42;;
44989;SDS011;30723;51.206;3.326;2022-11-21T04:33:07;7.55;;;2.47;;
44989;SDS011;30723;51.206;3.326;2022-11-21T04:35:33;15.77;;;2.55;;
44989;SDS011;30723;51.206;3.326;2022-11-21T04:37:59;14.52;;;2.58;;
44989;SDS011;30723;51.206;3.326;2022-11-21T04:40:25;13.95;;;2.38;;
44989;SDS011;30723;51.206;3.326;2022-11-21T04:42:51;7.05;;;2.38;;
44989;SDS011;30723;51.206;3.326;2022-11-21T04:45:16;12.23;;;2.15;;
44989;SDS011;30723;51.206;3.326;2022-11-21T04:47:43;9.82;;;2.67;;
44989;SDS011;30723;51.206;3.326;2022-11-21T04:50:10;7.32;;;2.35;;
44989;SDS011;30723;51.206;3.326;2022-11-21T04:52:39;9.43;;;2.50;;
44989;SDS011;30723;51.206;3.326;2022-11-21T04:55:06;9.23;;;2.15;;
44989;SDS011;30723;51.206;3.326;2022-11-21T04:57:33;4.25;;;2.08;;
44989;SDS011;30723;51.206;3.326;2022-11-21T04:59:59;7.47;;;2.55;;
44989;SDS011;30723;51.206;3.326;2022-11-21T05:02:25;16.27;;;2.88;;
44989;SDS011;30723;51.206;3.326;2022-11-21T05:04:50;6.82;;;2.08;;
44989;SDS011;30723;51.206;3.326;2022-11-21T05:07:16;8.23;;;3.40;;
44989;SDS011;30723;51.206;3.326;2022-11-21T05:09:42;8.80;;;2.85;;
44989;SDS011;30723;51.206;3.326;2022-11-21T05:12:09;10.15;;;2.30;;
44989;SDS011;30723;51.206;3.326;2022-11-21T05:14:53;9.95;;;2.90;;
44989;SDS011;30723;51.206;3.326;2022-11-21T05:17:19;7.90;;;2.35;;
44989;SDS011;30723;51.206;3.326;2022-11-21T05:19:45;8.15;;;2.90;;
44989;SDS011;30723;51.206;3.326;2022-11-21T05:22:11;7.32;;;2.35;;
44989;SDS011;30723;51.206;3.326;2022-11-21T05:24:37;14.02;;;2.75;;
44989;SDS011;30723;51.206;3.326;2022-11-21T05:27:03;4.72;;;2.53;;
44989;SDS011;30723;51.206;3.326;2022-11-21T05:29:29;9.15;;;2.72;;
44989;SDS011;30723;51.206;3.326;2022-11-21T05:31:55;18.02;;;3.63;;
44989;SDS011;30723;51.206;3.326;2022-11-21T05:34:20;9.55;;;2.65;;
44989;SDS011;30723;51.206;3.326;2022-11-21T05:36:47;15.52;;;3.13;;
44989;SDS011;30723;51.206;3.326;2022-11-21T05:39:13;7.68;;;2.92;;
44989;SDS011;30723;51.206;3.326;2022-11-21T05:41:40;7.97;;;2.97;;
44989;SDS011;30723;51.206;3.326;2022-11-21T05:44:06;6.53;;;3.03;;
44989;SDS011;30723;51.206;3.326;2022-11-21T05:46:31;16.40;;;4.05;;
44989;SDS011;30723;51.206;3.326;2022-11-21T05:48:57;17.95;;;2.90;;
44989;SDS011;30723;51.206;3.326;2022-11-21T05:51:23;15.48;;;3.20;;
44989;SDS011;30723;51.206;3.326;2022-11-21T05:53:49;6.72;;;2.90;;
44989;SDS011;30723;51.206;3.326;2022-11-21T05:56:16;8.90;;;2.70;;
44989;SDS011;30723;51.206;3.326;2022-11-21T05:58:43;10.73;;;3.70;;
44989;SDS011;30723;51.206;3.326;2022-11-21T06:01:10;11.23;;;3.72;;
44989;SDS011;30723;51.206;3.326;2022-11-21T06:03:38;10.57;;;3.20;;
44989;SDS011;30723;51.206;3.326;2022-11-21T06:06:11;11.82;;;3.53;;
44989;SDS011;30723;51.206;3.326;2022-11-21T06:08:41;15.25;;;4.57;;
44989;SDS011;30723;51.206;3.326;2022-11-21T06:11:09;9.77;;;4.40;;
44989;SDS011;30723;51.206;3.326;2022-11-21T06:13:37;12.07;;;3.33;;
44989;SDS011;30723;51.206;3.326;2022-11-21T06:18:43;11.23;;;3.97;;
44989;SDS011;30723;51.206;3.326;2022-11-21T06:21:12;13.27;;;4.50;;
44989;SDS011;30723;51.206;3.326;2022-11-21T06:23:40;12.32;;;4.00;;
44989;SDS011;30723;51.206;3.326;2022-11-21T06:26:13;12.55;;;4.38;;
44989;SDS011;30723;51.206;3.326;2022-11-21T06:28:42;13.63;;;3.97;;
44989;SDS011;30723;51.206;3.326;2022-11-21T06:31:10;11.18;;;3.65;;
44989;SDS011;30723;51.206;3.326;2022-11-21T06:33:37;10.85;;;3.55;;
44989;SDS011;30723;51.206;3.326;2022-11-21T06:36:04;7.93;;;3.47;;
44989;SDS011;30723;51.206;3.326;2022-11-21T06:38:40;13.18;;;5.47;;
44989;SDS011;30723;51.206;3.326;2022-11-21T06:41:14;11.43;;;4.55;;
44989;SDS011;30723;51.206;3.326;2022-11-21T06:43:41;11.57;;;4.40;;
44989;SDS011;30723;51.206;3.326;2022-11-21T06:46:07;8.35;;;4.03;;
44989;SDS011;30723;51.206;3.326;2022-11-21T06:48:33;16.35;;;4.47;;
44989;SDS011;30723;51.206;3.326;2022-11-21T06:51:14;9.35;;;4.00;;
44989;SDS011;30723;51.206;3.326;2022-11-21T06:53:42;11.90;;;3.92;;
44989;SDS011;30723;51.206;3.326;2022-11-21T06:56:08;11.88;;;3.97;;
44989;SDS011;30723;51.206;3.326;2022-11-21T06:58:34;17.98;;;3.83;;
44989;SDS011;30723;51.206;3.326;2022-11-21T07:01:04;8.00;;;3.63;;
44989;SDS011;30723;51.206;3.326;2022-11-21T07:03:30;12.43;;;3.85;;
44989;SDS011;30723;51.206;3.326;2022-11-21T07:05:58;11.95;;;3.90;;
44989;SDS011;30723;51.206;3.326;2022-11-21T07:08:25;10.32;;;4.18;;
44989;SDS011;30723;51.206;3.326;2022-11-21T07:10:59;10.13;;;4.50;;
44989;SDS011;30723;51.206;3.326;2022-11-21T07:13:29;14.80;;;4.32;;
44989;SDS011;30723;51.206;3.326;2022-11-21T07:16:00;11.43;;;4.82;;
44989;SDS011;30723;51.206;3.326;2022-11-21T07:18:27;18.08;;;4.95;;
44989;SDS011;30723;51.206;3.326;2022-11-21T07:20:57;13.20;;;5.03;;
44989;SDS011;30723;51.206;3.326;2022-11-21T07:23:23;12.47;;;5.30;;
44989;SDS011;30723;51.206;3.326;2022-11-21T07:25:49;10.27;;;5.45;;
44989;SDS011;30723;51.206;3.326;2022-11-21T07:28:15;18.02;;;5.45;;
44989;SDS011;30723;51.206;3.326;2022-11-21T07:30:41;21.85;;;6.30;;
44989;SDS011;30723;51.206;3.326;2022-11-21T07:33:07;13.90;;;5.35;;
44989;SDS011;30723;51.206;3.326;2022-11-21T07:35:33;13.77;;;6.03;;
44989;SDS011;30723;51.206;3.326;2022-11-21T07:38:00;12.68;;;5.85;;
44989;SDS011;30723;51.206;3.326;2022-11-21T07:40:26;20.70;;;7.07;;
44989;SDS011;30723;51.206;3.326;2022-11-21T07:42:52;14.35;;;6.30;;
44989;SDS011;30723;51.206;3.326;2022-11-21T07:45:18;12.70;;;5.95;;
44989;SDS011;30723;51.206;3.326;2022-11-21T07:47:44;17.77;;;6.05;;
44989;SDS011;30723;51.206;3.326;2022-11-21T07:50:10;14.98;;;6.32;;
44989;SDS011;30723;51.206;3.326;2022-11-21T07:52:36;15.60;;;6.25;;
44989;SDS011;30723;51.206;3.326;2022-11-21T07:55:03;14.98;;;6.43;;
44989;SDS011;30723;51.206;3.326;2022-11-21T07:57:30;14.05;;;6.25;;
44989;SDS011;30723;51.206;3.326;2022-11-21T07:59:56;23.02;;;6.28;;
44989;SDS011;30723;51.206;3.326;2022-11-21T08:02:26;20.02;;;6.50;;
44989;SDS011;30723;51.206;3.326;2022-11-21T08:04:52;11.52;;;5.57;;
44989;SDS011;30723;51.206;3.326;2022-11-21T08:07:19;15.30;;;6.60;;
44989;SDS011;30723;51.206;3.326;2022-11-21T08:09:46;21.42;;;7.55;;
44989;SDS011;30723;51.206;3.326;2022-11-21T08:12:12;21.75;;;7.82;;
44989;SDS011;30723;51.206;3.326;2022-11-21T08:14:39;16.25;;;7.13;;
44989;SDS011;30723;51.206;3.326;2022-11-21T08:17:05;17.88;;;6.80;;
44989;SDS011;30723;51.206;3.326;2022-11-21T08:19:31;15.75;;;6.00;;
44989;SDS011;30723;51.206;3.326;2022-11-21T08:21:57;22.35;;;6.50;;
44989;SDS011;30723;51.206;3.326;2022-11-21T08:24:23;16.92;;;6.88;;
44989;SDS011;30723;51.206;3.326;2022-11-21T08:26:49;16.50;;;8.38;;
44989;SDS011;30723;51.206;3.326;2022-11-21T08:29:15;16.35;;;9.38;;
44989;SDS011;30723;51.206;3.326;2022-11-21T08:31:41;25.95;;;10.18;;
44989;SDS011;30723;51.206;3.326;2022-11-21T08:34:08;24.27;;;11.02;;
44989;SDS011;30723;51.206;3.326;2022-11-21T08:36:34;19.17;;;10.43;;
44989;SDS011;30723;51.206;3.326;2022-11-21T08:39:00;20.77;;;9.40;;
44989;SDS011;30723;51.206;3.326;2022-11-21T08:41:25;18.55;;;8.82;;
44989;SDS011;30723;51.206;3.326;2022-11-21T08:44:10;19.15;;;8.00;;
44989;SDS011;30723;51.206;3.326;2022-11-21T08:46:37;12.57;;;7.40;;
44989;SDS011;30723;51.206;3.326;2022-11-21T08:49:03;12.55;;;6.60;;
44989;SDS011;30723;51.206;3.326;2022-11-21T08:51:29;12.70;;;5.88;;
44989;SDS011;30723;51.206;3.326;2022-11-21T08:53:55;13.75;;;5.75;;
44989;SDS011;30723;51.206;3.326;2022-11-21T08:56:21;18.45;;;6.93;;
44989;SDS011;30723;51.206;3.326;2022-11-21T08:58:46;15.35;;;5.38;;
44989;SDS011;30723;51.206;3.326;2022-11-21T09:01:12;13.90;;;5.55;;
44989;SDS011;30723;51.206;3.326;2022-11-21T09:03:38;20.33;;;6.00;;
44989;SDS011;30723;51.206;3.326;2022-11-21T09:06:04;14.85;;;4.97;;
44989;SDS011;30723;51.206;3.326;2022-11-21T09:08:30;15.95;;;6.10;;
44989;SDS011;30723;51.206;3.326;2022-11-21T09:10:56;15.68;;;6.07;;
44989;SDS011;30723;51.206;3.326;2022-11-21T09:13:22;15.05;;;4.38;;
44989;SDS011;30723;51.206;3.326;2022-11-21T09:15:47;16.67;;;4.60;;
44989;SDS011;30723;51.206;3.326;2022-11-21T09:18:32;11.48;;;4.90;;
44989;SDS011;30723;51.206;3.326;2022-11-21T09:20:57;14.18;;;4.28;;
44989;SDS011;30723;51.206;3.326;2022-11-21T09:23:23;15.60;;;4.60;;
44989;SDS011;30723;51.206;3.326;2022-11-21T09:25:49;10.23;;;4.00;;
44989;SDS011;30723;51.206;3.326;2022-11-21T09:28:15;16.08;;;5.35;;
44989;SDS011;30723;51.206;3.326;2022-11-21T09:30:41;15.05;;;5.65;;
44989;SDS011;30723;51.206;3.326;2022-11-21T09:33:09;16.38;;;7.18;;
44989;SDS011;30723;51.206;3.326;2022-11-21T09:35:35;19.45;;;7.63;;
44989;SDS011;30723;51.206;3.326;2022-11-21T09:38:02;14.82;;;4.75;;
44989;SDS011;30723;51.206;3.326;2022-11-21T09:40:28;14.43;;;4.93;;
44989;SDS011;30723;51.206;3.326;2022-11-21T09:42:59;14.68;;;4.80;;
44989;SDS011;30723;51.206;3.326;2022-11-21T09:48:21;19.92;;;4.80;;
44989;SDS011;30723;51.206;3.326;2022-11-21T09:50:54;33.47;;;20.10;;
44989;SDS011;30723;51.206;3.326;2022-11-21T09:54:10;13.88;;;5.15;;
44989;SDS011;30723;51.206;3.326;2022-11-21T09:56:14;16.65;;;5.57;;
44989;SDS011;30723;51.206;3.326;2022-11-21T10:01:46;17.20;;;6.70;;
44989;SDS011;30723;51.206;3.326;2022-11-21T10:04:12;18.90;;;6.40;;
44989;SDS011;30723;51.206;3.326;2022-11-21T10:09:32;22.88;;;6.00;;
44989;SDS011;30723;51.206;3.326;2022-11-21T10:20:38;24.38;;;7.03;;
44989;SDS011;30723;51.206;3.326;2022-11-21T10:29:08;22.13;;;7.43;;
44989;SDS011;30723;51.206;3.326;2022-11-21T10:31:39;30.85;;;7.97;;
44989;SDS011;30723;51.206;3.326;2022-11-21T10:34:54;27.65;;;7.38;;
44989;SDS011;30723;51.206;3.326;2022-11-21T10:37:01;20.85;;;6.72;;
44989;SDS011;30723;51.206;3.326;2022-11-21T10:40:11;25.98;;;7.65;;
44989;SDS011;30723;51.206;3.326;2022-11-21T10:42:59;32.00;;;8.95;;
44989;SDS011;30723;51.206;3.326;2022-11-21T10:46:02;30.85;;;8.65;;
44989;SDS011;30723;51.206;3.326;2022-11-21T10:48:28;24.10;;;9.25;;
44989;SDS011;30723;51.206;3.326;2022-11-21T10:53:38;26.65;;;9.93;;
44989;SDS011;30723;51.206;3.326;2022-11-21T10:56:23;23.20;;;10.75;;
44989;SDS011;30723;51.206;3.326;2022-11-21T10:58:51;28.42;;;11.63;;
44989;SDS011;30723;51.206;3.326;2022-11-21T11:01:28;41.85;;;13.35;;
44989;SDS011;30723;51.206;3.326;2022-11-21T11:06:33;29.90;;;12.98;;
44989;SDS011;30723;51.206;3.326;2022-11-21T11:08:59;31.38;;;13.80;;
44989;SDS011;30723;51.206;3.326;2022-11-21T11:11:25;28.50;;;13.93;;
44989;SDS011;30723;51.206;3.326;2022-11-21T11:13:57;28.05;;;13.57;;
44989;SDS011;30723;51.206;3.326;2022-11-21T11:16:36;34.05;;;14.32;;
44989;SDS011;30723;51.206;3.326;2022-11-21T11:29:15;26.30;;;14.35;;
44989;SDS011;30723;51.206;3.326;2022-11-21T11:34:17;39.30;;;15.75;;
44989;SDS011;30723;51.206;3.326;2022-11-21T11:47:50;38.63;;;18.63;;
44989;SDS011;30723;51.206;3.326;2022-11-21T11:50:42;37.38;;;18.52;;
44989;SDS011;30723;51.206;3.326;2022-11-21T11:53:16;34.22;;;18.42;;
44989;SDS011;30723;51.206;3.326;2022-11-21T11:56:04;38.63;;;18.92;;
44989;SDS011;30723;51.206;3.326;2022-11-21T11:58:39;30.75;;;17.25;;
44989;SDS011;30723;51.206;3.326;2022-11-21T12:04:20;36.70;;;16.70;;
44989;SDS011;30723;51.206;3.326;2022-11-21T12:23:39;37.40;;;16.58;;
44989;SDS011;30723;51.206;3.326;2022-11-21T12:34:46;61.28;;;28.45;;
44989;SDS011;30723;51.206;3.326;2022-11-21T12:45:54;56.20;;;25.60;;
44989;SDS011;30723;51.206;3.326;2022-11-21T12:48:39;50.38;;;21.33;;
44989;SDS011;30723;51.206;3.326;2022-11-21T12:57:09;47.97;;;20.20;;
44989;SDS011;30723;51.206;3.326;2022-11-21T12:59:41;44.22;;;18.83;;
44989;SDS011;30723;51.206;3.326;2022-11-21T13:02:17;45.42;;;17.98;;
44989;SDS011;30723;51.206;3.326;2022-11-21T13:04:47;41.78;;;18.92;;
44989;SDS011;30723;51.206;3.326;2022-11-21T13:07:14;48.17;;;17.95;;
44989;SDS011;30723;51.206;3.326;2022-11-21T13:09:41;40.80;;;16.90;;
44989;SDS011;30723;51.206;3.326;2022-11-21T13:12:21;48.00;;;18.65;;
44989;SDS011;30723;51.206;3.326;2022-11-21T13:18:02;37.67;;;15.77;;
44989;SDS011;30723;51.206;3.326;2022-11-21T13:20:47;41.17;;;14.32;;
44989;SDS011;30723;51.206;3.326;2022-11-21T13:23:47;30.73;;;14.20;;
44989;SDS011;30723;51.206;3.326;2022-11-21T13:29:11;30.08;;;14.05;;
44989;SDS011;30723;51.206;3.326;2022-11-21T13:31:39;43.58;;;15.65;;
44989;SDS011;30723;51.206;3.326;2022-11-21T13:36:56;36.42;;;14.55;;
44989;SDS011;30723;51.206;3.326;2022-11-21T13:48:03;36.35;;;15.35;;
44989;SDS011;30723;51.206;3.326;2022-11-21T14:14:36;22.40;;;7.10;;
44989;SDS011;30723;51.206;3.326;2022-11-21T14:19:54;25.83;;;7.03;;
44989;SDS011;30723;51.206;3.326;2022-11-21T14:25:07;23.73;;;6.43;;
44989;SDS011;30723;51.206;3.326;2022-11-21T14:27:39;27.48;;;6.97;;
44989;SDS011;30723;51.206;3.326;2022-11-21T14:30:23;19.30;;;6.20;;
44989;SDS011;30723;51.206;3.326;2022-11-21T14:32:53;21.05;;;6.82;;
44989;SDS011;30723;51.206;3.326;2022-11-21T14:35:20;25.33;;;6.80;;
44989;SDS011;30723;51.206;3.326;2022-11-21T14:37:48;22.20;;;6.85;;
44989;SDS011;30723;51.206;3.326;2022-11-21T14:40:21;24.50;;;7.47;;
44989;SDS011;30723;51.206;3.326;2022-11-21T14:42:48;20.55;;;6.95;;
44989;SDS011;30723;51.206;3.326;2022-11-21T14:45:18;24.40;;;6.75;;
44989;SDS011;30723;51.206;3.326;2022-11-21T14:47:46;18.45;;;6.70;;
44989;SDS011;30723;51.206;3.326;2022-11-21T14:50:26;20.15;;;5.72;;
44989;SDS011;30723;51.206;3.326;2022-11-21T14:53:00;18.23;;;5.38;;
44989;SDS011;30723;51.206;3.326;2022-11-21T14:55:28;22.95;;;6.00;;
44989;SDS011;30723;51.206;3.326;2022-11-21T14:57:57;22.33;;;5.97;;
44989;SDS011;30723;51.206;3.326;2022-11-21T15:00:26;15.63;;;6.25;;
44989;SDS011;30723;51.206;3.326;2022-11-21T15:02:54;17.40;;;5.85;;
44989;SDS011;30723;51.206;3.326;2022-11-21T15:05:27;22.90;;;6.70;;
44989;SDS011;30723;51.206;3.326;2022-11-21T15:07:54;24.73;;;6.07;;
44989;SDS011;30723;51.206;3.326;2022-11-21T15:10:22;23.63;;;7.03;;
44989;SDS011;30723;51.206;3.326;2022-11-21T15:12:53;23.73;;;5.65;;
44989;SDS011;30723;51.206;3.326;2022-11-21T15:17:54;18.85;;;6.15;;
44989;SDS011;30723;51.206;3.326;2022-11-21T15:20:22;15.70;;;6.03;;
44989;SDS011;30723;51.206;3.326;2022-11-21T15:22:48;19.05;;;6.00;;
44989;SDS011;30723;51.206;3.326;2022-11-21T15:25:21;18.17;;;6.07;;
44989;SDS011;30723;51.206;3.326;2022-11-21T15:30:26;18.65;;;6.80;;
44989;SDS011;30723;51.206;3.326;2022-11-21T15:38:25;21.25;;;7.03;;
44989;SDS011;30723;51.206;3.326;2022-11-21T15:48:59;16.10;;;7.13;;
44989;SDS011;30723;51.206;3.326;2022-11-21T15:54:00;16.98;;;7.30;;
44989;SDS011;30723;51.206;3.326;2022-11-21T15:56:26;18.42;;;7.70;;
44989;SDS011;30723;51.206;3.326;2022-11-21T15:58:52;22.27;;;7.20;;
44989;SDS011;30723;51.206;3.326;2022-11-21T16:01:22;18.92;;;7.10;;
44989;SDS011;30723;51.206;3.326;2022-11-21T16:03:58;20.40;;;6.70;;
44989;SDS011;30723;51.206;3.326;2022-11-21T16:06:25;18.33;;;6.93;;
44989;SDS011;30723;51.206;3.326;2022-11-21T16:08:51;25.27;;;6.88;;
44989;SDS011;30723;51.206;3.326;2022-11-21T16:11:22;16.55;;;6.57;;
44989;SDS011;30723;51.206;3.326;2022-11-21T16:13:49;18.08;;;5.93;;
44989;SDS011;30723;51.206;3.326;2022-11-21T16:16:17;16.73;;;7.22;;
44989;SDS011;30723;51.206;3.326;2022-11-21T16:18:44;22.70;;;6.97;;
44989;SDS011;30723;51.206;3.326;2022-11-21T16:21:10;17.50;;;7.35;;
44989;SDS011;30723;51.206;3.326;2022-11-21T16:23:36;17.42;;;8.15;;
44989;SDS011;30723;51.206;3.326;2022-11-21T16:26:03;22.05;;;8.35;;
44989;SDS011;30723;51.206;3.326;2022-11-21T16:28:30;18.20;;;8.15;;
44989;SDS011;30723;51.206;3.326;2022-11-21T16:30:56;24.02;;;8.27;;
44989;SDS011;30723;51.206;3.326;2022-11-21T16:33:22;30.50;;;8.73;;
44989;SDS011;30723;51.206;3.326;2022-11-21T16:35:48;22.42;;;8.48;;
44989;SDS011;30723;51.206;3.326;2022-11-21T16:38:19;26.60;;;8.20;;
44989;SDS011;30723;51.206;3.326;2022-11-21T16:40:53;18.50;;;6.70;;
44989;SDS011;30723;51.206;3.326;2022-11-21T16:43:20;27.73;;;6.15;;
44989;SDS011;30723;51.206;3.326;2022-11-21T16:45:47;17.42;;;6.28;;
44989;SDS011;30723;51.206;3.326;2022-11-21T16:48:12;18.35;;;6.47;;
44989;SDS011;30723;51.206;3.326;2022-11-21T16:50:38;21.40;;;6.35;;
44989;SDS011;30723;51.206;3.326;2022-11-21T16:53:04;13.27;;;5.07;;
44989;SDS011;30723;51.206;3.326;2022-11-21T16:55:30;16.85;;;6.82;;
44989;SDS011;30723;51.206;3.326;2022-11-21T16:57:56;22.33;;;5.53;;
44989;SDS011;30723;51.206;3.326;2022-11-21T17:00:24;12.48;;;5.10;;
44989;SDS011;30723;51.206;3.326;2022-11-21T17:02:51;21.23;;;5.90;;
44989;SDS011;30723;51.206;3.326;2022-11-21T17:05:17;20.52;;;5.80;;
44989;SDS011;30723;51.206;3.326;2022-11-21T17:07:44;18.92;;;5.32;;
44989;SDS011;30723;51.206;3.326;2022-11-21T17:10:10;15.55;;;6.07;;
44989;SDS011;30723;51.206;3.326;2022-11-21T17:12:37;15.73;;;5.28;;
44989;SDS011;30723;51.206;3.326;2022-11-21T17:15:04;25.02;;;6.35;;
44989;SDS011;30723;51.206;3.326;2022-11-21T17:17:30;16.65;;;5.53;;
44989;SDS011;30723;51.206;3.326;2022-11-21T17:19:56;14.70;;;5.00;;
44989;SDS011;30723;51.206;3.326;2022-11-21T17:22:22;28.33;;;6.30;;
44989;SDS011;30723;51.206;3.326;2022-11-21T17:24:49;13.30;;;6.13;;
44989;SDS011;30723;51.206;3.326;2022-11-21T17:27:17;16.40;;;4.90;;
44989;SDS011;30723;51.206;3.326;2022-11-21T17:29:44;20.40;;;5.25;;
44989;SDS011;30723;51.206;3.326;2022-11-21T17:32:10;13.68;;;5.25;;
44989;SDS011;30723;51.206;3.326;2022-11-21T17:34:36;16.80;;;5.13;;